createdAt,value
2024-05-09T00:00:02.072Z,1015.43
2024-05-09T00:01:02.180Z,1015.44
2024-05-09T00:02:02.208Z,1015.44
2024-05-09T00:03:02.069Z,1015.42
2024-05-09T00:04:02.173Z,1015.43
2024-05-09T00:05:02.176Z,1015.44
2024-05-09T00:06:02.303Z,1015.43
2024-05-09T00:07:01.992Z,1015.43
2024-05-09T00:08:02.095Z,1015.42
2024-05-09T00:09:02.020Z,1015.41
2024-05-09T00:10:02.156Z,1015.40
2024-05-09T00:11:02.148Z,1015.39
2024-05-09T00:12:02.110Z,1015.39
2024-05-09T00:13:01.956Z,1015.38
2024-05-09T00:14:01.931Z,1015.38
2024-05-09T00:15:01.931Z,1015.38
2024-05-09T00:16:01.903Z,1015.37
2024-05-09T00:17:02.061Z,1015.36
2024-05-09T00:18:02.399Z,1015.36
2024-05-09T00:19:01.978Z,1015.36
2024-05-09T00:20:01.925Z,1015.35
2024-05-09T00:21:02.063Z,1015.34
2024-05-09T00:22:01.854Z,1015.33
2024-05-09T00:23:01.983Z,1015.32
2024-05-09T00:24:01.910Z,1015.29
2024-05-09T00:25:02.057Z,1015.28
2024-05-09T00:26:02.140Z,1015.26
2024-05-09T00:27:01.772Z,1015.26
2024-05-09T00:28:02.303Z,1015.24
2024-05-09T00:29:01.798Z,1015.23
2024-05-09T00:30:02.854Z,1015.23
2024-05-09T00:31:01.733Z,1015.22
2024-05-09T00:32:01.790Z,1015.20
2024-05-09T00:33:01.910Z,1015.19
2024-05-09T00:34:02.074Z,1015.18
2024-05-09T00:35:01.861Z,1015.18
2024-05-09T00:36:01.669Z,1015.18
2024-05-09T00:37:01.668Z,1015.18
2024-05-09T00:38:02.069Z,1015.16
2024-05-09T00:39:01.661Z,1015.15
2024-05-09T00:40:01.633Z,1015.14
2024-05-09T00:41:01.689Z,1015.15
2024-05-09T00:42:01.697Z,1015.13
2024-05-09T00:43:01.596Z,1015.14
2024-05-09T00:44:01.604Z,1015.14
2024-05-09T00:45:01.609Z,1015.13
2024-05-09T00:46:01.614Z,1015.13
2024-05-09T00:47:01.603Z,1015.12
2024-05-09T00:48:01.880Z,1015.11
2024-05-09T00:49:01.736Z,1015.11
2024-05-09T00:50:01.606Z,1015.10
2024-05-09T00:51:01.675Z,1015.11
2024-05-09T00:52:01.520Z,1015.10
2024-05-09T00:53:01.551Z,1015.10
2024-05-09T00:54:01.474Z,1015.09
2024-05-09T00:55:01.487Z,1015.09
2024-05-09T00:56:01.472Z,1015.09
2024-05-09T00:57:01.496Z,1015.08
2024-05-09T00:58:01.462Z,1015.09
2024-05-09T00:59:01.512Z,1015.08
2024-05-09T01:00:01.420Z,1015.08
2024-05-09T01:01:01.509Z,1015.10
2024-05-09T01:02:01.485Z,1015.09
2024-05-09T01:03:01.708Z,1015.10
2024-05-09T01:04:01.614Z,1015.08
2024-05-09T01:05:01.565Z,1015.09
2024-05-09T01:06:01.516Z,1015.09
2024-05-09T01:07:01.394Z,1015.08
2024-05-09T01:08:01.695Z,1015.08
2024-05-09T01:09:01.369Z,1015.07
2024-05-09T01:10:01.334Z,1015.06
2024-05-09T01:11:01.738Z,1015.07
2024-05-09T01:12:01.564Z,1015.05
2024-05-09T01:13:01.317Z,1015.05
2024-05-09T01:14:01.322Z,1015.05
2024-05-09T01:15:01.251Z,1015.05
2024-05-09T01:16:01.306Z,1015.06
2024-05-09T01:17:01.279Z,1015.07
2024-05-09T01:18:01.711Z,1015.07
2024-05-09T01:19:01.328Z,1015.08
2024-05-09T01:20:01.297Z,1015.08
2024-05-09T01:21:01.352Z,1015.09
2024-05-09T01:22:01.179Z,1015.08
2024-05-09T01:23:01.270Z,1015.08
2024-05-09T01:24:01.174Z,1015.08
2024-05-09T01:25:01.147Z,1015.06
2024-05-09T01:26:01.168Z,1015.04
2024-05-09T01:27:01.126Z,1015.03
2024-05-09T01:28:01.137Z,1015.03
2024-05-09T01:29:01.279Z,1015.03
2024-05-09T01:30:01.121Z,1015.03
2024-05-09T01:31:01.108Z,1015.02
2024-05-09T01:32:01.248Z,1015.03
2024-05-09T01:33:01.511Z,1015.03
2024-05-09T01:34:01.189Z,1015.02
2024-05-09T01:35:01.260Z,1015.02
2024-05-09T01:36:01.074Z,1015.02
2024-05-09T01:37:01.023Z,1015.01
2024-05-09T01:38:01.206Z,1015.01
2024-05-09T01:39:01.006Z,1015.01
2024-05-09T01:40:01.035Z,1015.02
2024-05-09T01:41:01.059Z,1015.01
2024-05-09T01:42:00.960Z,1015.01
2024-05-09T01:43:00.964Z,1015.01
2024-05-09T01:44:01.017Z,1015.00
2024-05-09T01:45:00.963Z,1014.98
2024-05-09T01:46:00.925Z,1014.98
2024-05-09T01:47:00.974Z,1014.98
2024-05-09T01:48:01.309Z,1014.99
2024-05-09T01:49:00.967Z,1014.99
2024-05-09T01:50:01.056Z,1014.98
2024-05-09T01:51:00.956Z,1014.97
2024-05-09T01:52:00.875Z,1014.98
2024-05-09T01:53:00.973Z,1014.98
2024-05-09T01:54:00.825Z,1014.99
2024-05-09T01:55:04.628Z,1014.99
2024-05-09T01:56:00.893Z,1015.00
2024-05-09T01:57:00.846Z,1015.01
2024-05-09T01:58:00.792Z,1015.00
2024-05-09T01:59:00.876Z,1015.01
2024-05-09T02:00:00.755Z,1015.02
2024-05-09T02:01:00.821Z,1015.03
2024-05-09T02:02:01.057Z,1015.05
2024-05-09T02:03:01.026Z,1015.04
2024-05-09T02:04:00.907Z,1015.05
2024-05-09T02:05:00.883Z,1015.04
2024-05-09T02:06:00.757Z,1015.04
2024-05-09T02:07:00.722Z,1015.03
2024-05-09T02:08:00.766Z,1015.02
2024-05-09T02:09:00.665Z,1015.01
2024-05-09T02:10:00.658Z,1015.01
2024-05-09T02:11:00.834Z,1015.00
2024-05-09T02:12:01.020Z,1015.01
2024-05-09T02:13:00.721Z,1015.00
2024-05-09T02:14:00.747Z,1015.02
2024-05-09T02:15:00.641Z,1015.02
2024-05-09T02:16:00.589Z,1015.02
2024-05-09T02:17:00.668Z,1015.03
2024-05-09T02:18:00.854Z,1015.03
2024-05-09T02:19:00.633Z,1015.03
2024-05-09T02:20:00.667Z,1015.03
2024-05-09T02:21:00.839Z,1015.04
2024-05-09T02:22:00.520Z,1015.04
2024-05-09T02:23:00.658Z,1015.04
2024-05-09T02:24:00.574Z,1015.03
2024-05-09T02:25:00.744Z,1015.02
2024-05-09T02:27:00.518Z,1014.99
2024-05-09T02:28:00.522Z,1014.99
2024-05-09T02:29:00.616Z,1014.99
2024-05-09T02:30:00.618Z,1014.98
2024-05-09T02:31:00.492Z,1014.98
2024-05-09T02:32:00.560Z,1014.98
2024-05-09T02:33:00.552Z,1014.97
2024-05-09T02:34:00.614Z,1014.98
2024-05-09T02:35:00.480Z,1014.97
2024-05-09T02:36:00.410Z,1014.98
2024-05-09T02:37:00.372Z,1014.97
2024-05-09T02:38:00.566Z,1014.97
2024-05-09T02:39:00.340Z,1014.97
2024-05-09T02:40:00.334Z,1014.97
2024-05-09T02:41:00.973Z,1014.96
2024-05-09T02:42:00.354Z,1014.98
2024-05-09T02:43:00.308Z,1014.98
2024-05-09T02:44:00.328Z,1014.98
2024-05-09T02:45:00.334Z,1014.98
2024-05-09T02:46:00.344Z,1014.98
2024-05-09T02:47:00.364Z,1014.98
2024-05-09T02:48:01.376Z,1014.98
2024-05-09T02:49:00.328Z,1014.98
2024-05-09T02:50:00.294Z,1014.98
2024-05-09T02:51:00.277Z,1014.98
2024-05-09T02:52:00.213Z,1014.98
2024-05-09T02:53:00.269Z,1014.96
2024-05-09T02:54:00.183Z,1014.97
2024-05-09T02:55:00.190Z,1014.96
2024-05-09T02:56:00.238Z,1014.96
2024-05-09T02:57:00.154Z,1014.95
2024-05-09T02:58:00.414Z,1014.95
2024-05-09T02:59:00.212Z,1014.94
2024-05-09T03:00:00.154Z,1014.92
2024-05-09T03:01:00.151Z,1014.91
2024-05-09T03:02:00.195Z,1014.90
2024-05-09T03:03:00.867Z,1014.89
2024-05-09T03:04:00.261Z,1014.88
2024-05-09T03:05:00.128Z,1014.88
2024-05-09T03:06:00.047Z,1014.87
2024-05-09T03:07:00.056Z,1014.86
2024-05-09T03:08:00.070Z,1014.86
2024-05-09T03:09:00.515Z,1014.85
2024-05-09T03:10:00.030Z,1014.85
2024-05-09T03:11:00.115Z,1014.84
2024-05-09T03:12:00.147Z,1014.84
2024-05-09T03:12:59.947Z,1014.83
2024-05-09T03:13:59.976Z,1014.82
2024-05-09T03:14:59.966Z,1014.81
2024-05-09T03:15:59.964Z,1014.81
2024-05-09T03:16:59.968Z,1014.80
2024-05-09T03:18:00.185Z,1014.79
2024-05-09T03:19:00.005Z,1014.79
2024-05-09T03:19:59.927Z,1014.78
2024-05-09T03:20:59.992Z,1014.78
2024-05-09T03:21:59.838Z,1014.77
2024-05-09T03:22:59.916Z,1014.77
2024-05-09T03:23:59.807Z,1014.77
2024-05-09T03:24:59.799Z,1014.77
2024-05-09T03:25:59.853Z,1014.77
2024-05-09T03:26:59.782Z,1014.77
2024-05-09T03:27:59.902Z,1014.77
2024-05-09T03:28:59.791Z,1014.78
2024-05-09T03:29:59.768Z,1014.79
2024-05-09T03:30:59.748Z,1014.80
2024-05-09T03:31:59.838Z,1014.80
2024-05-09T03:32:59.843Z,1014.79
2024-05-09T03:33:59.846Z,1014.80
2024-05-09T03:34:59.727Z,1014.79
2024-05-09T03:35:59.711Z,1014.78
2024-05-09T03:36:59.678Z,1014.79
2024-05-09T03:37:59.689Z,1014.78
2024-05-09T03:38:59.653Z,1014.77
2024-05-09T03:39:59.639Z,1014.77
2024-05-09T03:40:59.717Z,1014.77
2024-05-09T03:41:59.647Z,1014.78
2024-05-09T03:42:59.613Z,1014.78
2024-05-09T03:43:59.659Z,1014.78
2024-05-09T03:44:59.598Z,1014.77
2024-05-09T03:45:59.611Z,1014.77
2024-05-09T03:46:59.600Z,1014.76
2024-05-09T03:47:59.677Z,1014.76
2024-05-09T03:48:59.611Z,1014.75
2024-05-09T03:49:59.616Z,1014.75
2024-05-09T03:50:59.613Z,1014.74
2024-05-09T03:51:59.687Z,1014.74
2024-05-09T03:52:59.571Z,1014.74
2024-05-09T03:53:59.523Z,1014.74
2024-05-09T03:54:59.555Z,1014.74
2024-05-09T03:55:59.530Z,1014.75
2024-05-09T03:56:59.511Z,1014.75
2024-05-09T03:57:59.678Z,1014.75
2024-05-09T03:58:59.787Z,1014.76
2024-05-09T03:59:59.455Z,1014.76
2024-05-09T04:00:59.468Z,1014.77
2024-05-09T04:01:59.567Z,1014.77
2024-05-09T04:02:59.891Z,1014.78
2024-05-09T04:03:59.454Z,1014.78
2024-05-09T04:04:59.553Z,1014.77
2024-05-09T04:05:59.409Z,1014.78
2024-05-09T04:06:59.557Z,1014.78
2024-05-09T04:07:59.468Z,1014.78
2024-05-09T04:08:59.518Z,1014.77
2024-05-09T04:09:59.336Z,1014.77
2024-05-09T04:10:59.502Z,1014.77
2024-05-09T04:11:59.561Z,1014.77
2024-05-09T04:12:59.342Z,1014.78
2024-05-09T04:13:59.401Z,1014.78
2024-05-09T04:14:59.286Z,1014.79
2024-05-09T04:15:59.249Z,1014.78
2024-05-09T04:16:59.278Z,1014.78
2024-05-09T04:17:59.447Z,1014.77
2024-05-09T04:18:59.309Z,1014.77
2024-05-09T04:19:59.259Z,1014.76
2024-05-09T04:20:59.257Z,1014.76
2024-05-09T04:21:59.207Z,1014.76
2024-05-09T04:22:59.221Z,1014.75
2024-05-09T04:23:59.170Z,1014.76
2024-05-09T04:24:59.168Z,1014.76
2024-05-09T04:25:59.208Z,1014.77
2024-05-09T04:26:59.159Z,1014.79
2024-05-09T04:27:59.132Z,1014.80
2024-05-09T04:28:59.117Z,1014.81
2024-05-09T04:29:59.107Z,1014.82
2024-05-09T04:30:59.116Z,1014.83
2024-05-09T04:31:59.210Z,1014.86
2024-05-09T04:32:59.339Z,1014.87
2024-05-09T04:33:59.208Z,1014.88
2024-05-09T04:34:59.092Z,1014.90
2024-05-09T04:35:59.063Z,1014.90
2024-05-09T04:36:59.029Z,1014.90
2024-05-09T04:37:59.054Z,1014.88
2024-05-09T04:38:59.036Z,1014.88
2024-05-09T04:39:59.006Z,1014.88
2024-05-09T04:40:59.054Z,1014.88
2024-05-09T04:41:58.976Z,1014.88
2024-05-09T04:42:58.958Z,1014.90
2024-05-09T04:43:58.999Z,1014.90
2024-05-09T04:44:58.978Z,1014.91
2024-05-09T04:45:58.951Z,1014.91
2024-05-09T04:46:59.026Z,1014.92
2024-05-09T04:47:59.218Z,1014.92
2024-05-09T04:48:58.988Z,1014.93
2024-05-09T04:49:58.968Z,1014.93
2024-05-09T04:50:58.920Z,1014.94
2024-05-09T04:51:58.873Z,1014.94
2024-05-09T04:52:58.921Z,1014.95
2024-05-09T04:53:58.835Z,1014.95
2024-05-09T04:54:59.113Z,1014.96
2024-05-09T04:55:58.852Z,1014.95
2024-05-09T04:56:58.807Z,1014.95
2024-05-09T04:57:58.802Z,1014.95
2024-05-09T04:58:58.814Z,1014.95
2024-05-09T04:59:58.764Z,1014.94
2024-05-09T05:00:59.329Z,1014.95
2024-05-09T05:01:58.881Z,1014.95
2024-05-09T05:02:58.934Z,1014.96
2024-05-09T05:03:59.111Z,1014.97
2024-05-09T05:04:58.882Z,1014.97
2024-05-09T05:05:58.839Z,1014.97
2024-05-09T05:07:02.136Z,1014.97
2024-05-09T05:07:58.739Z,1014.97
2024-05-09T05:08:58.706Z,1014.96
2024-05-09T05:09:58.668Z,1014.96
2024-05-09T05:10:58.749Z,1014.96
2024-05-09T05:11:58.708Z,1014.96
2024-05-09T05:12:58.652Z,1014.97
2024-05-09T05:13:58.775Z,1014.98
2024-05-09T05:14:58.620Z,1014.98
2024-05-09T05:15:58.867Z,1014.99
2024-05-09T05:16:58.718Z,1015.00
2024-05-09T05:17:58.864Z,1015.01
2024-05-09T05:18:58.681Z,1015.01
2024-05-09T05:19:58.719Z,1015.02
2024-05-09T05:20:58.742Z,1015.02
2024-05-09T05:21:58.561Z,1015.02
2024-05-09T05:22:58.552Z,1015.02
2024-05-09T05:23:58.529Z,1015.02
2024-05-09T05:24:58.527Z,1015.02
2024-05-09T05:25:58.535Z,1015.01
2024-05-09T05:26:58.507Z,1015.00
2024-05-09T05:27:58.769Z,1014.99
2024-05-09T05:28:58.527Z,1014.99
2024-05-09T05:29:58.457Z,1014.98
2024-05-09T05:30:58.452Z,1014.98
2024-05-09T05:31:58.557Z,1014.98
2024-05-09T05:32:58.490Z,1014.98
2024-05-09T05:33:58.416Z,1014.98
2024-05-09T05:34:58.762Z,1014.98
2024-05-09T05:35:58.392Z,1014.98
2024-05-09T05:36:58.618Z,1014.97
2024-05-09T05:37:58.394Z,1014.97
2024-05-09T05:38:58.371Z,1014.97
2024-05-09T05:39:58.343Z,1014.97
2024-05-09T05:40:58.431Z,1014.97
2024-05-09T05:41:58.365Z,1014.96
2024-05-09T05:42:58.313Z,1014.96
2024-05-09T05:43:58.392Z,1014.96
2024-05-09T05:44:58.289Z,1014.96
2024-05-09T05:45:58.292Z,1014.95
2024-05-09T05:46:58.553Z,1014.95
2024-05-09T05:47:58.446Z,1014.94
2024-05-09T05:48:58.521Z,1014.94
2024-05-09T05:49:58.482Z,1014.95
2024-05-09T05:51:00.496Z,1014.95
2024-05-09T05:51:58.478Z,1014.96
2024-05-09T05:52:58.448Z,1014.96
2024-05-09T05:53:58.198Z,1014.97
2024-05-09T05:54:58.398Z,1014.97
2024-05-09T05:55:58.243Z,1014.97
2024-05-09T05:56:58.469Z,1014.97
2024-05-09T05:57:58.726Z,1014.98
2024-05-09T05:58:58.471Z,1014.98
2024-05-09T05:59:58.143Z,1014.98
2024-05-09T06:00:58.192Z,1014.99
2024-05-09T06:01:58.139Z,1015.00
2024-05-09T06:02:58.199Z,1015.00
2024-05-09T06:03:58.305Z,1015.00
2024-05-09T06:04:58.472Z,1015.00
2024-05-09T06:05:58.197Z,1014.99
2024-05-09T06:06:58.048Z,1014.99
2024-05-09T06:07:58.127Z,1014.98
2024-05-09T06:08:58.343Z,1014.98
2024-05-09T06:09:58.029Z,1014.97
2024-05-09T06:10:58.184Z,1014.97
2024-05-09T06:11:58.139Z,1014.97
2024-05-09T06:12:58.306Z,1014.97
2024-05-09T06:13:58.297Z,1014.97
2024-05-09T06:14:58.017Z,1014.97
2024-05-09T06:15:57.973Z,1014.97
2024-05-09T06:16:58.425Z,1014.97
2024-05-09T06:17:58.159Z,1014.97
2024-05-09T06:18:58.107Z,1014.97
2024-05-09T06:19:58.372Z,1014.97
2024-05-09T06:20:57.985Z,1014.96
2024-05-09T06:21:58.202Z,1014.97
2024-05-09T06:22:57.900Z,1014.96
2024-05-09T06:23:57.874Z,1014.96
2024-05-09T06:24:58.190Z,1014.96
2024-05-09T06:25:57.905Z,1014.96
2024-05-09T06:26:58.581Z,1014.96
2024-05-09T06:27:57.844Z,1014.96
2024-05-09T06:28:57.863Z,1014.95
2024-05-09T06:29:57.821Z,1014.95
2024-05-09T06:30:58.088Z,1014.94
2024-05-09T06:31:59.924Z,1014.95
2024-05-09T06:32:57.903Z,1014.94
2024-05-09T06:33:57.903Z,1014.95
2024-05-09T06:34:57.786Z,1014.96
2024-05-09T06:35:57.773Z,1014.97
2024-05-09T06:36:58.023Z,1014.97
2024-05-09T06:37:58.056Z,1014.98
2024-05-09T06:38:57.710Z,1014.98
2024-05-09T06:39:57.917Z,1014.98
2024-05-09T06:40:57.784Z,1014.97
2024-05-09T06:41:57.684Z,1014.97
2024-05-09T06:42:57.668Z,1014.96
2024-05-09T06:43:57.764Z,1014.97
2024-05-09T06:44:57.642Z,1014.97
2024-05-09T06:45:57.649Z,1014.98
2024-05-09T06:46:59.954Z,1014.99
2024-05-09T06:47:57.868Z,1015.01
2024-05-09T06:48:58.082Z,1015.01
2024-05-09T06:49:57.861Z,1015.02
2024-05-09T06:50:57.674Z,1015.03
2024-05-09T06:51:57.586Z,1015.03
2024-05-09T06:52:57.775Z,1015.04
2024-05-09T06:53:58.204Z,1015.04
2024-05-09T06:54:57.763Z,1015.04
2024-05-09T06:55:57.551Z,1015.05
2024-05-09T06:56:57.838Z,1015.06
2024-05-09T06:57:57.514Z,1015.07
2024-05-09T06:58:57.778Z,1015.07
2024-05-09T06:59:57.805Z,1015.07
2024-05-09T07:00:57.481Z,1015.07
2024-05-09T07:01:57.770Z,1015.07
2024-05-09T07:02:58.967Z,1015.07
2024-05-09T07:03:57.803Z,1015.07
2024-05-09T07:04:57.866Z,1015.06
2024-05-09T07:05:57.515Z,1015.06
2024-05-09T07:06:57.408Z,1015.06
2024-05-09T07:07:57.637Z,1015.07
2024-05-09T07:08:57.402Z,1015.08
2024-05-09T07:09:57.393Z,1015.08
2024-05-09T07:10:57.452Z,1015.08
2024-05-09T07:11:57.367Z,1015.07
2024-05-09T07:12:57.589Z,1015.08
2024-05-09T07:13:58.168Z,1015.08
2024-05-09T07:14:57.328Z,1015.08
2024-05-09T07:15:57.368Z,1015.09
2024-05-09T07:16:57.426Z,1015.10
2024-05-09T07:17:57.471Z,1015.11
2024-05-09T07:18:57.541Z,1015.12
2024-05-09T07:19:57.344Z,1015.12
2024-05-09T07:20:57.285Z,1015.12
2024-05-09T07:21:57.259Z,1015.13
2024-05-09T07:22:57.630Z,1015.13
2024-05-09T07:23:57.276Z,1015.13
2024-05-09T07:24:57.231Z,1015.13
2024-05-09T07:25:57.238Z,1015.13
2024-05-09T07:26:57.190Z,1015.14
2024-05-09T07:27:57.275Z,1015.14
2024-05-09T07:28:57.221Z,1015.13
2024-05-09T07:29:57.191Z,1015.14
2024-05-09T07:30:57.156Z,1015.13
2024-05-09T07:31:57.176Z,1015.14
2024-05-09T07:32:57.400Z,1015.14
2024-05-09T07:33:57.216Z,1015.15
2024-05-09T07:34:57.129Z,1015.15
2024-05-09T07:35:57.266Z,1015.15
2024-05-09T07:36:57.092Z,1015.17
2024-05-09T07:37:57.180Z,1015.18
2024-05-09T07:38:57.099Z,1015.18
2024-05-09T07:39:57.064Z,1015.16
2024-05-09T07:40:57.103Z,1015.16
2024-05-09T07:41:57.095Z,1015.18
2024-05-09T07:42:57.037Z,1015.17
2024-05-09T07:43:57.111Z,1015.17
2024-05-09T07:45:11.210Z,1015.20
2024-05-09T07:45:59.774Z,1015.20
2024-05-09T07:49:44.226Z,1015.23
2024-05-09T07:53:14.191Z,1015.23
2024-05-09T07:53:46.149Z,1015.22
2024-05-09T07:53:57.264Z,1015.20
2024-05-09T07:54:53.400Z,1015.20
2024-05-09T07:55:53.165Z,1015.19
2024-05-09T07:56:53.217Z,1015.18
2024-05-09T07:57:53.171Z,1015.18
2024-05-09T07:58:53.130Z,1015.19
2024-05-09T07:59:52.939Z,1015.18
2024-05-09T08:00:53.074Z,1015.19
2024-05-09T08:01:53.728Z,1015.17
2024-05-09T08:02:52.894Z,1015.16
2024-05-09T08:03:53.385Z,1015.15
2024-05-09T08:04:53.256Z,1015.15
2024-05-09T08:05:52.950Z,1015.14
2024-05-09T08:06:52.858Z,1015.13
2024-05-09T08:07:52.810Z,1015.13
2024-05-09T08:08:52.833Z,1015.13
2024-05-09T08:09:53.183Z,1015.13
2024-05-09T08:10:52.836Z,1015.14
2024-05-09T08:11:53.372Z,1015.12
2024-05-09T08:12:52.797Z,1015.12
2024-05-09T08:13:53.021Z,1015.12
2024-05-09T08:14:53.025Z,1015.12
2024-05-09T08:15:53.000Z,1015.11
2024-05-09T08:16:52.835Z,1015.10
2024-05-09T08:17:52.817Z,1015.10
2024-05-09T08:18:53.025Z,1015.09
2024-05-09T08:19:52.752Z,1015.08
2024-05-09T08:20:52.724Z,1015.08
2024-05-09T08:21:52.730Z,1015.07
2024-05-09T08:22:53.015Z,1015.08
2024-05-09T08:23:52.651Z,1015.09
2024-05-09T08:24:52.741Z,1015.10
2024-05-09T08:25:52.686Z,1015.11
2024-05-09T08:26:52.730Z,1015.09
2024-05-09T08:27:52.724Z,1015.10
2024-05-09T08:28:52.714Z,1015.11
2024-05-09T08:29:52.663Z,1015.11
2024-05-09T08:30:52.977Z,1015.13
2024-05-09T08:31:52.637Z,1015.12
2024-05-09T08:32:52.729Z,1015.13
2024-05-09T08:33:52.912Z,1015.14
2024-05-09T08:34:52.669Z,1015.13
2024-05-09T08:35:52.585Z,1015.14
2024-05-09T08:36:52.693Z,1015.13
2024-05-09T08:37:52.578Z,1015.13
2024-05-09T08:38:52.472Z,1015.13
2024-05-09T08:39:52.556Z,1015.12
2024-05-09T08:40:52.558Z,1015.12
2024-05-09T08:41:52.455Z,1015.12
2024-05-09T08:42:52.773Z,1015.11
2024-05-09T08:43:52.483Z,1015.10
2024-05-09T08:44:52.462Z,1015.10
2024-05-09T08:45:52.470Z,1015.08
2024-05-09T08:46:52.426Z,1015.10
2024-05-09T08:47:53.416Z,1015.09
2024-05-09T08:48:52.684Z,1015.08
2024-05-09T08:49:52.623Z,1015.07
2024-05-09T08:50:52.807Z,1015.07
2024-05-09T08:51:52.673Z,1015.08
2024-05-09T08:52:52.335Z,1015.08
2024-05-09T08:53:52.338Z,1015.08
2024-05-09T08:54:52.364Z,1015.08
2024-05-09T08:55:52.308Z,1015.07
2024-05-09T08:56:53.009Z,1015.07
2024-05-09T08:57:52.341Z,1015.08
2024-05-09T08:58:52.574Z,1015.09
2024-05-09T08:59:52.263Z,1015.07
2024-05-09T09:00:52.362Z,1015.07
2024-05-09T09:01:52.397Z,1015.07
2024-05-09T09:02:52.462Z,1015.08
2024-05-09T09:03:52.478Z,1015.08
2024-05-09T09:04:52.584Z,1015.09
2024-05-09T09:05:52.264Z,1015.07
2024-05-09T09:06:54.764Z,1015.07
2024-05-09T09:07:52.445Z,1015.06
2024-05-09T09:08:52.453Z,1015.07
2024-05-09T09:09:52.247Z,1015.06
2024-05-09T09:10:52.408Z,1015.07
2024-05-09T09:11:52.474Z,1015.06
2024-05-09T09:12:52.208Z,1015.07
2024-05-09T09:13:52.215Z,1015.07
2024-05-09T09:14:52.094Z,1015.06
2024-05-09T09:15:52.247Z,1015.07
2024-05-09T09:16:52.076Z,1015.04
2024-05-09T09:17:52.507Z,1015.04
2024-05-09T09:18:52.629Z,1015.04
2024-05-09T09:19:52.369Z,1015.03
2024-05-09T09:20:52.281Z,1015.02
2024-05-09T09:21:52.287Z,1015.01
2024-05-09T09:22:52.287Z,1015.00
2024-05-09T09:23:52.289Z,1015.00
2024-05-09T09:24:52.246Z,1015.00
2024-05-09T09:25:52.217Z,1015.00
2024-05-09T09:26:52.214Z,1015.00
2024-05-09T09:27:52.284Z,1015.01
2024-05-09T09:28:52.181Z,1015.02
2024-05-09T09:29:52.099Z,1015.01
2024-05-09T09:30:51.991Z,1015.01
2024-05-09T09:31:52.167Z,1015.01
2024-05-09T09:32:51.989Z,1015.00
2024-05-09T09:33:52.507Z,1015.00
2024-05-09T09:34:52.140Z,1014.97
2024-05-09T09:35:51.887Z,1014.97
2024-05-09T09:36:51.904Z,1014.96
2024-05-09T09:37:51.843Z,1014.95
2024-05-09T09:38:52.105Z,1014.95
2024-05-09T09:39:52.130Z,1014.95
2024-05-09T09:40:52.086Z,1014.94
2024-05-09T09:41:52.068Z,1014.95
2024-05-09T09:42:52.028Z,1014.95
2024-05-09T09:43:52.020Z,1014.93
2024-05-09T09:45:01.871Z,1014.90
2024-05-09T09:45:53.230Z,1014.89
2024-05-09T09:46:52.042Z,1014.91
2024-05-09T09:47:51.808Z,1014.92
2024-05-09T09:48:52.285Z,1014.94
2024-05-09T09:49:52.029Z,1014.92
2024-05-09T09:50:51.809Z,1014.91
2024-05-09T09:51:51.958Z,1014.91
2024-05-09T09:52:51.917Z,1014.90
2024-05-09T09:53:51.947Z,1014.89
2024-05-09T09:54:51.960Z,1014.88
2024-05-09T09:55:51.733Z,1014.88
2024-05-09T09:56:51.651Z,1014.88
2024-05-09T09:57:51.683Z,1014.88
2024-05-09T09:58:51.647Z,1014.86
2024-05-09T09:59:52.259Z,1014.84
2024-05-09T10:00:51.805Z,1014.86
2024-05-09T10:01:51.937Z,1014.81
2024-05-09T10:02:51.823Z,1014.82
2024-05-09T10:03:52.050Z,1014.82
2024-05-09T10:04:51.888Z,1014.85
2024-05-09T10:05:51.598Z,1014.81
2024-05-09T10:06:51.719Z,1014.80
2024-05-09T10:07:51.533Z,1014.79
2024-05-09T10:08:51.515Z,1014.79
2024-05-09T10:09:51.542Z,1014.77
2024-05-09T10:10:51.680Z,1014.77
2024-05-09T10:11:54.450Z,1014.74
2024-05-09T10:12:51.505Z,1014.74
2024-05-09T10:13:51.740Z,1014.73
2024-05-09T10:14:51.676Z,1014.70
2024-05-09T10:15:51.630Z,1014.68
2024-05-09T10:16:51.436Z,1014.69
2024-05-09T10:17:51.736Z,1014.69
2024-05-09T10:18:51.572Z,1014.69
2024-05-09T10:19:51.522Z,1014.69
2024-05-09T10:20:51.373Z,1014.69
2024-05-09T10:21:51.419Z,1014.68
2024-05-09T10:22:51.706Z,1014.66
2024-05-09T10:23:51.394Z,1014.65
2024-05-09T10:24:51.392Z,1014.65
2024-05-09T10:25:51.466Z,1014.63
2024-05-09T10:26:51.307Z,1014.62
2024-05-09T10:27:51.346Z,1014.60
2024-05-09T10:28:51.291Z,1014.60
2024-05-09T10:29:51.304Z,1014.60
2024-05-09T10:30:51.701Z,1014.59
2024-05-09T10:31:51.306Z,1014.57
2024-05-09T10:32:51.305Z,1014.58
2024-05-09T10:33:52.612Z,1014.58
2024-05-09T10:34:51.261Z,1014.57
2024-05-09T10:35:51.499Z,1014.56
2024-05-09T10:36:51.517Z,1014.54
2024-05-09T10:37:51.216Z,1014.53
2024-05-09T10:38:51.201Z,1014.54
2024-05-09T10:39:51.214Z,1014.54
2024-05-09T10:40:52.040Z,1014.54
2024-05-09T10:41:52.512Z,1014.54
2024-05-09T10:42:51.164Z,1014.53
2024-05-09T10:43:52.475Z,1014.53
2024-05-09T10:44:51.120Z,1014.52
2024-05-09T10:45:51.121Z,1014.51
2024-05-09T10:46:51.191Z,1014.51
2024-05-09T10:47:51.198Z,1014.50
2024-05-09T10:48:51.236Z,1014.49
2024-05-09T10:49:51.325Z,1014.48
2024-05-09T10:50:51.067Z,1014.45
2024-05-09T10:51:51.092Z,1014.46
2024-05-09T10:52:51.055Z,1014.45
2024-05-09T10:53:51.052Z,1014.46
2024-05-09T10:54:51.083Z,1014.43
2024-05-09T10:55:51.016Z,1014.41
2024-05-09T10:56:51.131Z,1014.41
2024-05-09T10:57:51.021Z,1014.40
2024-05-09T10:58:50.959Z,1014.40
2024-05-09T10:59:51.230Z,1014.40
2024-05-09T11:00:51.049Z,1014.42
2024-05-09T11:01:51.191Z,1014.40
2024-05-09T11:02:50.957Z,1014.39
2024-05-09T11:03:51.198Z,1014.40
2024-05-09T11:04:51.033Z,1014.38
2024-05-09T11:05:51.177Z,1014.40
2024-05-09T11:06:51.015Z,1014.39
2024-05-09T11:07:50.860Z,1014.38
2024-05-09T11:08:50.891Z,1014.37
2024-05-09T11:09:51.172Z,1014.35
2024-05-09T11:10:51.143Z,1014.31
2024-05-09T11:11:50.902Z,1014.27
2024-05-09T11:12:50.963Z,1014.28
2024-05-09T11:13:50.816Z,1014.29
2024-05-09T11:14:50.790Z,1014.29
2024-05-09T11:15:50.911Z,1014.29
2024-05-09T11:16:51.249Z,1014.31
2024-05-09T11:17:50.869Z,1014.29
2024-05-09T11:18:50.881Z,1014.28
2024-05-09T11:19:50.791Z,1014.25
2024-05-09T11:20:50.761Z,1014.24
2024-05-09T11:21:50.778Z,1014.22
2024-05-09T11:22:50.791Z,1014.19
2024-05-09T11:23:50.713Z,1014.20
2024-05-09T11:24:50.731Z,1014.22
2024-05-09T11:25:50.700Z,1014.21
2024-05-09T11:26:50.702Z,1014.21
2024-05-09T11:27:51.040Z,1014.17
2024-05-09T11:28:51.120Z,1014.19
2024-05-09T11:29:50.879Z,1014.18
2024-05-09T11:30:51.118Z,1014.17
2024-05-09T11:31:52.116Z,1014.19
2024-05-09T11:32:50.736Z,1014.17
2024-05-09T11:33:50.765Z,1014.15
2024-05-09T11:34:50.642Z,1014.14
2024-05-09T11:35:51.540Z,1014.13
2024-05-09T11:36:50.635Z,1014.09
2024-05-09T11:37:50.631Z,1014.08
2024-05-09T11:38:50.798Z,1014.07
2024-05-09T11:39:50.610Z,1014.05
2024-05-09T11:40:50.680Z,1014.05
2024-05-09T11:41:50.518Z,1014.03
2024-05-09T11:42:53.161Z,1014.01
2024-05-09T11:43:50.752Z,1013.99
2024-05-09T11:44:51.338Z,1013.98
2024-05-09T11:45:50.511Z,1013.97
2024-05-09T11:46:50.538Z,1013.93
2024-05-09T11:47:50.769Z,1013.96
2024-05-09T11:48:50.593Z,1013.95
2024-05-09T11:49:50.692Z,1013.94
2024-05-09T11:50:50.742Z,1013.91
2024-05-09T11:51:50.686Z,1013.92
2024-05-09T11:52:50.614Z,1013.91
2024-05-09T11:53:50.419Z,1013.89
2024-05-09T11:54:50.939Z,1013.90
2024-05-09T11:55:50.376Z,1013.90
2024-05-09T11:56:50.597Z,1013.89
2024-05-09T11:57:50.629Z,1013.90
2024-05-09T11:58:50.407Z,1013.89
2024-05-09T11:59:50.581Z,1013.87
2024-05-09T12:00:52.119Z,1013.84
2024-05-09T12:01:50.491Z,1013.83
2024-05-09T12:02:50.344Z,1013.81
2024-05-09T12:03:50.631Z,1013.80
2024-05-09T12:04:50.443Z,1013.78
2024-05-09T12:05:50.388Z,1013.78
2024-05-09T12:06:50.281Z,1013.77
2024-05-09T12:07:50.247Z,1013.78
2024-05-09T12:08:50.228Z,1013.76
2024-05-09T12:09:50.260Z,1013.75